Time;durP1;ratioP1;P1;durP2;ratioP2;P2;SDS_P1;SDS_P2;PMS_P1;PMS_P2;Temp;Humidity;BMP_temperature;BMP_pressure;BME280_temperature;BME280_humidity;BME280_pressure;Samples;Min_cycle;Max_cycle;Signal;HPM_P1;HPM_P2
2022/04/17 00:01:44;;;;;;;0.40;0.30;;;;;;;2.68;76.67;102851.91;5053292;28;20493;-70
2022/04/17 00:04:14;;;;;;;0.40;0.30;;;;;;;2.77;76.67;102856.09;5052672;28;20469;-70
2022/04/17 00:06:40;;;;;;;0.40;0.30;;;;;;;2.74;76.64;102843.09;5053573;28;20462;-70
2022/04/17 00:09:06;;;;;;;0.40;0.30;;;;;;;2.58;77.97;102846.06;5052822;28;20453;-70
2022/04/17 00:11:34;;;;;;;0.40;0.30;;;;;;;2.44;77.76;102841.59;5052188;28;20478;-70
2022/04/17 00:14:01;;;;;;;0.40;0.30;;;;;;;2.61;76.59;102851.03;5051342;28;20469;-70
2022/04/17 00:16:28;;;;;;;0.40;0.30;;;;;;;2.57;76.43;102848.91;5052688;28;20481;-70
2022/04/17 00:18:54;;;;;;;3.23;3.03;;;;;;;2.68;75.85;102843.03;5053182;28;21011;-71
2022/04/17 00:21:22;;;;;;;0.40;0.30;;;;;;;2.73;75.24;102844.13;5054182;28;20473;-70
2022/04/17 00:23:49;;;;;;;0.40;0.30;;;;;;;2.67;75.89;102849.44;5051849;28;20466;-72
2022/04/17 00:26:15;;;;;;;0.50;0.30;;;;;;;2.50;75.67;102849.66;5052937;28;20530;-69
2022/04/17 00:28:42;;;;;;;0.40;0.30;;;;;;;2.45;75.91;102843.25;5052423;28;20466;-68
2022/04/17 00:31:09;;;;;;;0.40;0.30;;;;;;;2.39;73.72;102833.28;5052468;28;20494;-70
2022/04/17 00:33:36;;;;;;;0.40;0.30;;;;;;;2.34;73.49;102831.19;5052098;28;20509;-70
2022/04/17 00:36:03;;;;;;;0.40;0.30;;;;;;;2.23;73.74;102840.56;5052789;28;20964;-71
2022/04/17 00:38:29;;;;;;;0.40;0.30;;;;;;;2.17;73.29;102832.44;5052132;28;20461;-70
2022/04/17 00:40:55;;;;;;;0.40;0.30;;;;;;;2.10;73.19;102820.88;5052646;28;20477;-71
2022/04/17 00:43:23;;;;;;;2.70;2.60;;;;;;;2.06;72.65;102817.75;5051389;28;20454;-70
2022/04/17 00:45:51;;;;;;;0.50;0.47;;;;;;;1.94;73.35;102809.38;5052574;28;20462;-69
2022/04/17 00:48:19;;;;;;;0.40;0.30;;;;;;;2.10;73.04;102821.69;5052505;28;20462;-73
2022/04/17 00:50:46;;;;;;;0.40;0.30;;;;;;;2.21;72.18;102817.69;5052542;28;20548;-73
2022/04/17 00:53:13;;;;;;;0.40;0.30;;;;;;;2.22;72.41;102817.53;5051579;28;20466;-73
2022/04/17 00:55:40;;;;;;;0.40;0.30;;;;;;;2.14;74.02;102825.66;5052879;28;20457;-73
2022/04/17 00:58:06;;;;;;;0.40;0.30;;;;;;;1.95;75.90;102818.25;5053007;28;20473;-73
2022/04/17 01:00:33;;;;;;;0.40;0.30;;;;;;;1.93;75.45;102813.06;5050882;28;20496;-73
2022/04/17 01:02:59;;;;;;;0.40;0.30;;;;;;;1.79;74.56;102805.94;5052822;28;20501;-73
2022/04/17 01:05:27;;;;;;;0.40;0.30;;;;;;;1.82;73.42;102802.91;5051482;28;20533;-72
2022/04/17 01:07:55;;;;;;;0.40;0.40;;;;;;;1.73;73.27;102801.34;5052245;28;20464;-73
2022/04/17 01:10:22;;;;;;;0.40;0.30;;;;;;;1.63;74.83;102808.81;5052069;28;20482;-73
2022/04/17 01:12:48;;;;;;;0.40;0.30;;;;;;;1.57;75.57;102814.91;5052086;28;20462;-73
2022/04/17 01:15:15;;;;;;;0.40;0.30;;;;;;;1.55;75.84;102806.22;5050921;28;20483;-72
2022/04/17 01:17:41;;;;;;;0.40;0.30;;;;;;;1.47;76.19;102804.50;5052828;28;20958;-72
2022/04/17 01:20:08;;;;;;;0.40;0.30;;;;;;;1.58;75.65;102806.69;5052014;28;20486;-73
2022/04/17 01:22:36;;;;;;;0.40;0.30;;;;;;;1.55;76.52;102803.56;5050920;28;21484;-73
2022/04/17 01:27:47;;;;;;;0.40;0.30;;;;;;;1.54;76.98;102796.56;5051838;28;20832;-73
2022/04/17 01:30:13;;;;;;;0.40;0.40;;;;;;;1.60;77.27;102799.34;5047129;28;20486;-74
2022/04/17 01:32:40;;;;;;;0.40;0.30;;;;;;;1.60;76.44;102806.53;5045719;28;20520;-74
2022/04/17 01:35:07;;;;;;;2.00;1.90;;;;;;;1.53;76.90;102798.41;5052907;28;20488;-73
2022/04/17 01:37:33;;;;;;;0.40;0.30;;;;;;;1.50;77.47;102804.13;5051204;28;20462;-73
2022/04/17 01:40:01;;;;;;;0.40;0.30;;;;;;;1.52;77.74;102808.28;5052280;28;20501;-73
2022/04/17 01:42:28;;;;;;;0.40;0.30;;;;;;;1.67;77.31;102797.56;5046623;28;20981;-72
2022/04/17 01:44:54;;;;;;;0.40;0.30;;;;;;;1.65;78.86;102798.78;5045670;28;20458;-73
2022/04/17 01:47:20;;;;;;;0.40;0.30;;;;;;;1.65;79.38;102804.94;5052608;28;20467;-71
2022/04/17 01:49:47;;;;;;;0.40;0.30;;;;;;;1.58;79.39;102801.34;5051300;28;20986;-72
2022/04/17 01:52:13;;;;;;;0.40;0.40;;;;;;;1.65;79.64;102791.59;5050247;28;20458;-72
2022/04/17 01:54:40;;;;;;;0.40;0.30;;;;;;;1.74;80.17;102785.13;5051472;28;20465;-72
2022/04/17 01:57:07;;;;;;;0.40;0.30;;;;;;;1.87;79.75;102788.97;5050693;28;20462;-72
2022/04/17 01:59:34;;;;;;;0.40;0.30;;;;;;;1.83;80.14;102793.84;5051490;28;20978;-72
2022/04/17 02:02:01;;;;;;;0.40;0.30;;;;;;;1.74;81.24;102792.31;5051302;28;20854;-72
2022/04/17 02:04:32;;;;;;;0.40;0.30;;;;;;;1.82;81.12;102796.72;5051637;28;20466;-71
2022/04/17 02:06:58;;;;;;;0.40;0.30;;;;;;;1.87;79.92;102789.78;5050614;28;20482;-69
2022/04/17 02:09:25;;;;;;;0.40;0.30;;;;;;;1.94;79.28;102792.53;5051918;28;20458;-71
2022/04/17 02:11:53;;;;;;;0.40;0.30;;;;;;;1.88;79.03;102788.78;5051356;28;20486;-70
2022/04/17 02:14:20;;;;;;;0.40;0.30;;;;;;;1.76;77.60;102793.75;5050568;28;20995;-68
2022/04/17 02:16:47;;;;;;;0.40;0.30;;;;;;;1.60;77.85;102796.66;5052053;28;20469;-70
2022/04/17 02:19:14;;;;;;;0.40;0.30;;;;;;;1.59;79.59;102797.66;5051622;28;20469;-70
2022/04/17 02:21:40;;;;;;;0.40;0.30;;;;;;;1.60;78.55;102790.50;5055398;28;20473;-70
2022/04/17 02:24:07;;;;;;;0.40;0.30;;;;;;;1.49;77.79;102784.59;5055087;28;20466;-71
2022/04/17 02:26:34;;;;;;;0.40;0.30;;;;;;;1.45;79.08;102783.31;5056014;28;20465;-70
2022/04/17 02:29:02;;;;;;;0.40;0.30;;;;;;;1.36;78.77;102773.75;5056143;28;20869;-69
2022/04/17 02:31:31;;;;;;;0.40;0.30;;;;;;;1.32;79.51;102780.47;5055980;28;20490;-70
2022/04/17 02:33:59;;;;;;;0.40;0.30;;;;;;;1.33;79.90;102781.28;5055739;28;20458;-70
2022/04/17 02:36:26;;;;;;;0.40;0.30;;;;;;;1.27;80.03;102783.69;5056046;28;20462;-70
2022/04/17 02:38:53;;;;;;;0.40;0.30;;;;;;;1.19;79.60;102775.78;5055289;28;20517;-70
2022/04/17 02:41:20;;;;;;;0.80;0.80;;;;;;;1.34;79.35;102777.63;5055465;28;20489;-70
2022/04/17 02:43:46;;;;;;;0.40;0.30;;;;;;;1.23;80.04;102781.56;5055089;28;20462;-70
2022/04/17 02:47:42;;;;;;;0.40;0.30;;;;;;;1.10;80.44;102784.06;5053790;28;20462;-70
2022/04/17 02:49:00;;;;;;;0.40;0.30;;;;;;;1.04;81.60;102779.47;5055059;28;20481;-70
2022/04/17 02:51:27;;;;;;;0.40;0.30;;;;;;;1.16;80.63;102770.81;5055457;28;20517;-70
2022/04/17 02:53:53;;;;;;;0.40;0.30;;;;;;;1.08;80.60;102773.59;5054151;28;20958;-70
2022/04/17 02:56:20;;;;;;;0.40;0.30;;;;;;;1.12;80.32;102777.53;5054469;28;20462;-70
2022/04/17 02:58:46;;;;;;;5.43;5.03;;;;;;;0.94;80.65;102771.75;5055802;28;20465;-70
2022/04/17 03:06:41;;;;;;;0.40;0.30;;;;;;;1.21;82.50;102772.94;5055102;28;20961;-71
2022/04/17 03:09:08;;;;;;;0.40;0.30;;;;;;;1.37;81.32;102761.22;5053584;28;20466;-70
2022/04/17 03:11:34;;;;;;;0.40;0.30;;;;;;;1.44;81.41;102765.66;5054864;28;20547;-71
2022/04/17 03:14:01;;;;;;;53.20;12.40;;;;;;;1.45;81.26;102756.63;5054503;28;20997;-71
2022/04/17 03:16:27;;;;;;;0.40;0.30;;;;;;;1.43;81.46;102761.31;5054359;28;20462;-70
2022/04/17 03:18:54;;;;;;;9.60;8.93;;;;;;;1.42;81.25;102740.16;5055279;28;20516;-69
2022/04/17 03:21:20;;;;;;;0.40;0.40;;;;;;;1.48;80.45;102747.41;5055076;28;20507;-69
2022/04/17 03:23:48;;;;;;;0.40;0.30;;;;;;;1.51;80.55;102742.53;5053933;28;20472;-69
2022/04/17 03:26:15;;;;;;;0.40;0.30;;;;;;;1.51;80.12;102742.53;5055073;28;20466;-69
2022/04/17 03:28:41;;;;;;;0.40;0.40;;;;;;;1.49;80.00;102735.72;5053082;28;20462;-69
2022/04/17 03:31:07;;;;;;;0.40;0.30;;;;;;;1.39;80.02;102735.19;5055143;28;20527;-69
2022/04/17 03:33:34;;;;;;;0.40;0.30;;;;;;;1.23;80.12;102734.34;5053651;28;20481;-70
2022/04/17 03:36:00;;;;;;;0.40;0.30;;;;;;;1.10;79.34;102728.84;5053147;28;20469;-69
2022/04/17 03:38:27;;;;;;;0.40;0.30;;;;;;;1.03;79.62;102733.28;5053905;28;20454;-69
2022/04/17 03:40:55;;;;;;;0.40;0.30;;;;;;;1.04;80.07;102726.94;5055535;28;20528;-69
2022/04/17 03:43:23;;;;;;;0.40;0.30;;;;;;;0.97;79.97;102731.34;5053528;28;20457;-70
2022/04/17 03:45:49;;;;;;;0.40;0.30;;;;;;;1.01;80.36;102724.63;5047215;28;20485;-70
2022/04/17 03:48:18;;;;;;;0.40;0.30;;;;;;;0.92;80.72;102725.72;5053016;28;20481;-70
2022/04/17 03:50:44;;;;;;;0.40;0.30;;;;;;;0.84;80.23;102726.66;5053568;28;20498;-71
2022/04/17 03:53:11;;;;;;;0.40;0.30;;;;;;;0.84;81.29;102725.81;5055420;28;20431;-70
2022/04/17 03:55:38;;;;;;;0.40;0.30;;;;;;;0.86;82.08;102729.97;5053123;28;20463;-70
2022/04/17 03:58:05;;;;;;;0.40;0.30;;;;;;;0.97;81.65;102740.19;5055311;28;20543;-70
2022/04/17 04:00:32;;;;;;;0.40;0.30;;;;;;;1.06;81.86;102727.56;5053168;28;20486;-70
2022/04/17 04:02:59;;;;;;;0.40;0.30;;;;;;;1.12;80.89;102726.84;5054716;28;20977;-70
2022/04/17 04:05:26;;;;;;;0.40;0.30;;;;;;;0.90;81.26;102728.59;5053364;28;20462;-68
2022/04/17 04:07:52;;;;;;;0.40;0.30;;;;;;;0.98;80.77;102720.50;5052461;28;20459;-70
2022/04/17 04:10:18;;;;;;;0.40;0.30;;;;;;;0.99;79.46;102718.66;5052301;28;21061;-70
2022/04/17 04:12:45;;;;;;;0.40;0.30;;;;;;;0.97;79.58;102718.84;5052881;28;20462;-70
2022/04/17 04:15:13;;;;;;;0.40;0.30;;;;;;;0.96;79.34;102711.00;5053730;28;20844;-69
2022/04/17 04:17:39;;;;;;;0.40;0.30;;;;;;;1.03;78.79;102721.78;5053545;28;20544;-69
2022/04/17 04:20:07;;;;;;;0.40;0.30;;;;;;;0.99;78.65;102716.81;5053967;28;20497;-68
2022/04/17 04:22:33;;;;;;;0.40;0.30;;;;;;;0.98;79.76;102719.66;5051422;28;20461;-70
2022/04/17 04:25:00;;;;;;;0.40;0.30;;;;;;;1.01;80.08;102721.94;5053475;28;20462;-70
2022/04/17 04:30:11;;;;;;;0.40;0.30;;;;;;;0.95;80.04;102725.38;5052531;28;20500;-69
2022/04/17 04:32:38;;;;;;;0.40;0.30;;;;;;;0.88;80.41;102721.75;5054489;28;20498;-68
2022/04/17 04:35:06;;;;;;;0.40;0.30;;;;;;;0.90;81.29;102727.75;5051644;28;20974;-69
2022/04/17 04:37:33;;;;;;;0.40;0.40;;;;;;;0.96;81.18;102727.84;5051765;28;20980;-68
2022/04/17 04:39:59;;;;;;;0.40;0.30;;;;;;;0.90;81.20;102727.75;5053434;28;20560;-69
2022/04/17 04:42:26;;;;;;;0.40;0.30;;;;;;;0.87;81.21;102733.44;5052663;28;20488;-70
2022/04/17 04:46:06;;;;;;;0.40;0.33;;;;;;;0.93;81.70;102738.03;5052745;28;20906;-69
2022/04/17 04:47:40;;;;;;;0.40;0.30;;;;;;;0.90;81.08;102741.09;5053083;28;20458;-70
2022/04/17 04:50:07;;;;;;;0.40;0.30;;;;;;;1.01;81.27;102743.28;5052353;28;20466;-70
2022/04/17 04:52:36;;;;;;;0.40;0.30;;;;;;;1.13;81.70;102752.50;5054221;28;20887;-70
2022/04/17 04:55:03;;;;;;;0.40;0.30;;;;;;;1.16;82.25;102744.13;5052512;28;20486;-68
2022/04/17 04:57:29;;;;;;;0.40;0.30;;;;;;;1.13;82.99;102743.66;5053282;28;20501;-68
2022/04/17 04:59:56;;;;;;;0.40;0.30;;;;;;;1.24;82.66;102741.38;5050588;28;21066;-73
2022/04/17 05:02:22;;;;;;;0.40;0.30;;;;;;;1.44;81.68;102746.94;5051619;28;20545;-70
2022/04/17 05:04:50;;;;;;;0.40;0.30;;;;;;;1.53;82.11;102745.00;5052413;28;20462;-65
2022/04/17 05:07:16;;;;;;;0.50;0.50;;;;;;;1.52;82.01;102746.03;5054008;28;20511;-69
2022/04/17 05:09:43;;;;;;;0.40;0.30;;;;;;;1.61;82.25;102741.41;5051011;28;20462;-69
2022/04/17 05:12:10;;;;;;;0.40;0.30;;;;;;;1.63;81.96;102744.69;5053370;28;20508;-71
2022/04/17 05:14:40;;;;;;;1.03;1.03;;;;;;;1.56;83.55;102743.81;5051902;28;20466;-72
2022/04/17 05:17:06;;;;;;;0.40;0.30;;;;;;;1.55;83.95;102737.66;5050360;28;20474;-72
2022/04/17 05:19:33;;;;;;;0.40;0.30;;;;;;;1.71;83.58;102741.91;5051898;28;20462;-72
2022/04/17 05:22:02;;;;;;;0.40;0.30;;;;;;;1.76;83.11;102745.69;5050773;28;20890;-71
2022/04/17 05:24:29;;;;;;;0.40;0.30;;;;;;;1.99;81.61;102742.84;5049953;28;20469;-72
2022/04/17 05:26:56;;;;;;;3.90;3.70;;;;;;;2.04;80.74;102739.63;5051028;28;20554;-70
2022/04/17 05:29:22;;;;;;;0.40;0.30;;;;;;;2.09;81.25;102745.22;5050446;28;22192;-71
2022/04/17 05:31:49;;;;;;;0.40;0.40;;;;;;;2.03;80.24;102737.94;5052643;28;20494;-71
2022/04/17 05:34:16;;;;;;;2.57;2.47;;;;;;;2.26;80.51;102741.25;5050428;28;20497;-71
2022/04/17 05:36:42;;;;;;;0.40;0.30;;;;;;;2.40;79.90;102746.72;5046507;28;20466;-72
2022/04/17 05:39:10;;;;;;;0.40;0.30;;;;;;;2.35;79.84;102741.13;5048884;28;20908;-71
2022/04/17 05:41:38;;;;;;;0.40;0.30;;;;;;;2.40;79.85;102736.03;5047142;28;20900;-70
2022/04/17 05:44:06;;;;;;;0.40;0.30;;;;;;;2.41;80.33;102737.66;5052580;28;20967;-69
2022/04/17 05:46:35;;;;;;;0.40;0.30;;;;;;;2.60;79.67;102737.00;5049859;28;22753;-69
2022/04/17 05:49:03;;;;;;;0.40;0.30;;;;;;;2.73;80.07;102730.91;5053145;28;20454;-68
2022/04/17 05:51:29;;;;;;;0.40;0.30;;;;;;;2.88;79.73;102741.50;5049392;28;20490;-68
2022/04/17 05:53:56;;;;;;;0.40;0.30;;;;;;;3.04;79.30;102741.19;5050435;28;20466;-69
2022/04/17 05:56:24;;;;;;;0.40;0.30;;;;;;;3.21;77.75;102741.69;5051557;28;20466;-70
2022/04/17 05:58:51;;;;;;;0.40;0.30;;;;;;;3.31;77.53;102744.00;5050353;28;20960;-69
2022/04/17 06:01:17;;;;;;;0.40;0.30;;;;;;;3.43;77.33;102735.22;5051342;28;20482;-69
2022/04/17 06:03:44;;;;;;;0.40;0.30;;;;;;;3.55;76.99;102740.81;5050898;28;20466;-69
2022/04/17 06:06:11;;;;;;;0.40;0.30;;;;;;;3.67;76.21;102744.56;5048901;28;20834;-70
2022/04/17 06:08:37;;;;;;;0.40;0.30;;;;;;;3.82;75.42;102751.63;5048130;28;20470;-71
2022/04/17 06:11:04;;;;;;;0.40;0.30;;;;;;;3.92;75.79;102754.75;5047514;28;20493;-70
2022/04/17 06:13:31;;;;;;;0.40;0.30;;;;;;;4.06;74.75;102748.38;5043317;28;20823;-71
2022/04/17 06:15:58;;;;;;;1.03;1.03;;;;;;;4.19;73.68;102747.56;5052613;28;20524;-71
2022/04/17 06:18:24;;;;;;;1.50;1.40;;;;;;;4.32;73.72;102750.25;5048715;28;20580;-71
2022/04/17 06:20:51;;;;;;;0.40;0.30;;;;;;;4.48;72.62;102749.03;5049433;28;20478;-71
2022/04/17 06:23:17;;;;;;;0.40;0.30;;;;;;;4.64;72.21;102745.09;5050674;28;20991;-71
2022/04/17 06:25:43;;;;;;;0.40;0.30;;;;;;;4.84;71.18;102761.19;5051523;28;20458;-71
2022/04/17 06:28:10;;;;;;;0.40;0.30;;;;;;;5.01;70.10;102751.66;5051964;28;20465;-70
2022/04/17 06:30:38;;;;;;;0.40;0.30;;;;;;;5.18;69.74;102752.84;5050749;28;20888;-70
2022/04/17 06:33:04;;;;;;;0.40;0.30;;;;;;;5.35;69.17;102747.00;5063296;22;20500;-63
2022/04/17 06:35:31;;;;;;;0.40;0.30;;;;;;;5.50;68.84;102751.09;5011568;28;20510;-66
2022/04/17 06:38:00;;;;;;;0.40;0.40;;;;;;;5.64;66.51;102745.66;5018093;28;20550;-65
2022/04/17 06:40:28;;;;;;;0.40;0.30;;;;;;;5.79;65.46;102743.47;5023844;28;20464;-64
2022/04/17 06:42:57;;;;;;;0.83;0.83;;;;;;;5.90;64.80;102744.69;5012109;28;20464;-62
2022/04/17 06:45:25;;;;;;;0.40;0.30;;;;;;;6.04;64.24;102746.28;5011005;28;20460;-64
2022/04/17 06:47:53;;;;;;;0.40;0.30;;;;;;;6.13;63.53;102739.56;5012080;28;20538;-65
2022/04/17 06:50:22;;;;;;;0.40;0.30;;;;;;;6.29;62.59;102744.44;5010528;28;20467;-64
2022/04/17 06:52:48;;;;;;;0.40;0.30;;;;;;;6.41;62.14;102747.22;5011654;28;20574;-65
2022/04/17 06:55:15;;;;;;;0.40;0.40;;;;;;;6.55;61.25;102746.09;5011347;28;20468;-64
2022/04/17 06:57:46;;;;;;;0.40;0.30;;;;;;;6.67;61.04;102734.59;5011643;28;20945;-65
2022/04/17 07:00:14;;;;;;;0.40;0.30;;;;;;;6.71;60.18;102739.31;5007555;28;20475;-64
2022/04/17 07:02:42;;;;;;;0.40;0.30;;;;;;;6.71;60.18;102739.31;5008975;28;20563;-65
2022/04/17 07:05:12;;;;;;;0.40;0.30;;;;;;;6.85;60.05;102731.91;5011616;28;20463;-67
2022/04/17 07:07:39;;;;;;;8.23;7.50;;;;;;;6.99;58.91;102724.50;5015645;28;20467;-67
2022/04/17 07:10:06;;;;;;;0.40;0.30;;;;;;;7.20;57.34;102723.25;5013104;28;20460;-67
2022/04/17 07:12:34;;;;;;;0.40;0.30;;;;;;;7.38;57.34;102719.72;5014087;28;20487;-67
2022/04/17 07:15:01;;;;;;;0.40;0.30;;;;;;;7.57;57.39;102708.69;5015665;28;20525;-67
2022/04/17 07:17:35;;;;;;;0.40;0.30;;;;;;;7.89;56.22;102702.22;5015735;28;20463;-67
2022/04/17 07:20:02;;;;;;;0.40;0.40;;;;;;;8.19;56.31;102705.69;5014631;28;20499;-66
2022/04/17 07:22:29;;;;;;;0.40;0.30;;;;;;;8.49;55.85;102694.00;5012432;28;20487;-66
2022/04/17 07:24:57;;;;;;;0.40;0.30;;;;;;;8.72;55.04;102694.00;5011770;28;20467;-69
2022/04/17 07:27:25;;;;;;;0.40;0.30;;;;;;;8.89;54.26;102694.06;5010920;28;20472;-68
2022/04/17 07:29:52;;;;;;;0.40;0.30;;;;;;;9.05;54.06;102700.63;5015140;28;20494;-67
2022/04/17 07:32:19;;;;;;;0.40;0.30;;;;;;;9.23;54.41;102703.19;5013738;28;20492;-67
2022/04/17 07:34:45;;;;;;;0.40;0.30;;;;;;;9.42;54.64;102703.00;5012755;28;20491;-67
2022/04/17 07:37:12;;;;;;;0.40;0.30;;;;;;;9.54;53.48;102684.84;5011142;28;20464;-66
2022/04/17 07:39:40;;;;;;;0.40;0.30;;;;;;;9.58;52.18;102692.22;5015077;28;20464;-69
2022/04/17 07:42:06;;;;;;;0.40;0.30;;;;;;;9.67;51.73;102689.13;5013882;28;20460;-67
2022/04/17 07:44:33;;;;;;;0.40;0.30;;;;;;;9.78;51.97;102686.38;5015772;28;20530;-68
2022/04/17 07:46:59;;;;;;;0.40;0.30;;;;;;;9.85;51.67;102692.44;5013568;28;20483;-72
2022/04/17 07:49:26;;;;;;;0.40;0.30;;;;;;;9.98;52.02;102698.63;5012095;28;20460;-68
2022/04/17 07:51:54;;;;;;;0.40;0.30;;;;;;;10.03;51.38;102696.00;5014553;28;20488;-68
2022/04/17 07:54:21;;;;;;;0.40;0.30;;;;;;;10.03;51.16;102704.13;5013124;28;20487;-67
2022/04/17 07:56:49;;;;;;;0.50;0.40;;;;;;;10.05;51.07;102702.00;5015951;28;20455;-67
2022/04/17 07:59:15;;;;;;;0.40;0.27;;;;;;;10.07;50.96;102706.09;5013813;28;20861;-67
2022/04/17 08:01:43;;;;;;;0.40;0.30;;;;;;;10.03;50.41;102699.53;5015754;28;20510;-67
2022/04/17 08:04:09;;;;;;;0.40;0.30;;;;;;;10.02;50.24;102705.19;5014130;28;21041;-68
2022/04/17 08:06:36;;;;;;;0.40;0.30;;;;;;;10.08;50.26;102710.44;5014887;28;20938;-66
2022/04/17 08:09:03;;;;;;;0.40;0.30;;;;;;;10.13;49.83;102704.28;5014097;28;20491;-68
2022/04/17 08:11:29;;;;;;;0.40;0.30;;;;;;;10.18;48.83;102692.72;5013474;28;20468;-67
2022/04/17 08:13:57;;;;;;;0.40;0.30;;;;;;;10.37;49.67;102698.75;5012619;28;20534;-66
2022/04/17 08:16:24;;;;;;;3.07;2.63;;;;;;;10.57;49.03;102693.63;5010975;28;20472;-67
2022/04/17 08:18:50;;;;;;;0.40;0.30;;;;;;;10.68;48.49;102695.41;5011808;28;20897;-67
2022/04/17 08:21:17;;;;;;;0.40;0.30;;;;;;;10.83;49.09;102684.78;5014757;28;20444;-66
2022/04/17 08:23:43;;;;;;;0.40;0.30;;;;;;;10.90;48.69;102681.91;5012730;28;20479;-64
2022/04/17 08:26:10;;;;;;;0.40;0.30;;;;;;;10.89;45.19;102668.56;5012726;28;20467;-66
2022/04/17 08:28:36;;;;;;;0.40;0.33;;;;;;;10.92;45.49;102673.50;5010182;28;20459;-66
2022/04/17 08:31:04;;;;;;;0.40;0.30;;;;;;;10.93;45.91;102667.00;5014672;28;20443;-65
2022/04/17 08:33:30;;;;;;;0.40;0.30;;;;;;;11.02;44.92;102663.63;5012415;28;20502;-67
2022/04/17 08:35:59;;;;;;;0.40;0.30;;;;;;;11.08;45.87;102657.16;5014605;28;20447;-66
2022/04/17 08:38:25;;;;;;;0.40;0.30;;;;;;;11.22;46.06;102651.34;5012828;28;20529;-65
2022/04/17 08:40:53;;;;;;;1.40;1.30;;;;;;;11.33;46.05;102653.94;5011965;28;20471;-66
2022/04/17 08:43:21;;;;;;;0.40;0.30;;;;;;;11.44;46.91;102648.59;5014166;28;20484;-67
2022/04/17 08:45:50;;;;;;;0.70;0.70;;;;;;;11.61;46.85;102649.31;5013154;28;20957;-67
2022/04/17 08:48:18;;;;;;;0.40;0.30;;;;;;;11.72;45.67;102644.78;5013647;28;20541;-66
2022/04/17 08:50:46;;;;;;;0.40;0.30;;;;;;;11.78;44.38;102643.78;5013740;28;20467;-66
2022/04/17 08:53:16;;;;;;;0.40;0.30;;;;;;;11.79;43.90;102646.22;5021516;28;20522;-68
2022/04/17 08:55:43;;;;;;;0.40;0.30;;;;;;;11.80;43.94;102634.28;5014342;28;20883;-66
2022/04/17 08:58:10;;;;;;;0.40;0.30;;;;;;;11.83;44.54;102636.53;5013185;28;20930;-63
2022/04/17 09:00:37;;;;;;;0.40;0.30;;;;;;;11.86;43.52;102636.00;5014156;28;20951;-67
2022/04/17 09:03:03;;;;;;;0.40;0.30;;;;;;;11.95;44.33;102630.91;5012991;28;20522;-67
2022/04/17 09:05:33;;;;;;;0.40;0.30;;;;;;;12.10;46.37;102630.22;5013885;28;20938;-67
2022/04/17 09:08:12;;;;;;;0.40;0.30;;;;;;;12.26;44.98;102623.81;5013398;28;20487;-66
2022/04/17 09:10:39;;;;;;;0.40;0.30;;;;;;;12.24;43.67;102631.38;5013985;28;20436;-64
2022/04/17 09:13:06;;;;;;;0.40;0.30;;;;;;;12.30;43.87;102624.91;5011899;28;20484;-67
2022/04/17 09:15:34;;;;;;;0.40;0.30;;;;;;;12.36;43.48;102618.44;5010162;28;20456;-65
2022/04/17 09:18:02;;;;;;;0.40;0.30;;;;;;;12.37;43.37;102620.06;5012937;28;20460;-67
2022/04/17 09:20:29;;;;;;;0.40;0.30;;;;;;;12.40;43.17;102613.28;5014555;28;20483;-66
2022/04/17 09:22:59;;;;;;;0.40;0.30;;;;;;;12.34;42.89;102609.72;5012823;28;21008;-67
2022/04/17 09:25:26;;;;;;;0.40;0.30;;;;;;;12.43;44.34;102611.94;5013149;28;20467;-66
2022/04/17 09:27:58;;;;;;;0.40;0.30;;;;;;;12.50;43.09;102610.63;5012372;28;20939;-66
2022/04/17 09:30:26;;;;;;;0.40;0.30;;;;;;;12.60;42.55;102599.78;5005241;28;20457;-66
2022/04/17 09:32:52;;;;;;;0.40;0.30;;;;;;;12.72;41.34;102593.31;5013742;28;20499;-65
2022/04/17 09:35:22;;;;;;;0.40;0.30;;;;;;;12.81;42.34;102586.28;5005813;28;20559;-68
2022/04/17 09:37:49;;;;;;;0.40;0.30;;;;;;;12.77;42.13;102586.00;5003455;28;20476;-64
2022/04/17 09:40:20;;;;;;;0.40;0.30;;;;;;;12.65;41.37;102579.97;5004819;28;20463;-65
2022/04/17 09:42:48;;;;;;;0.40;0.27;;;;;;;12.50;42.05;102585.34;5010597;28;20551;-67
2022/04/17 09:45:15;;;;;;;0.40;0.30;;;;;;;12.43;42.82;102580.13;5008206;28;20460;-66
2022/04/17 09:47:41;;;;;;;0.40;0.30;;;;;;;12.36;42.51;102574.94;5010756;28;20468;-65
2022/04/17 09:50:09;;;;;;;0.40;0.30;;;;;;;12.45;41.93;102577.16;5007978;28;20915;-66
2022/04/17 09:52:41;;;;;;;0.40;0.30;;;;;;;12.63;42.29;102576.69;5007402;28;20518;-65
2022/04/17 09:55:09;;;;;;;2.50;2.30;;;;;;;12.90;43.56;102584.69;5018277;28;20836;-66
2022/04/17 09:57:39;;;;;;;0.40;0.27;;;;;;;13.10;41.85;102578.47;5011297;28;20542;-66
2022/04/17 10:00:11;;;;;;;0.40;0.30;;;;;;;13.29;43.37;102576.91;5017783;28;20466;-66
2022/04/17 10:02:38;;;;;;;0.40;0.30;;;;;;;13.40;42.40;102568.75;5012894;28;21035;-67
2022/04/17 10:05:06;;;;;;;0.40;0.30;;;;;;;13.55;42.60;102564.16;5009290;28;20496;-66
2022/04/17 10:07:33;;;;;;;0.40;0.30;;;;;;;13.69;41.17;102558.97;5007887;28;20510;-68
2022/04/17 10:09:59;;;;;;;0.40;0.30;;;;;;;13.68;40.35;102556.50;5013411;28;20456;-65
2022/04/17 10:12:27;;;;;;;0.40;0.30;;;;;;;13.75;40.97;102551.59;5012368;28;20953;-66
2022/04/17 10:14:57;;;;;;;0.40;0.20;;;;;;;13.72;41.50;102550.22;5012349;28;20535;-67
2022/04/17 10:17:24;;;;;;;0.40;0.30;;;;;;;13.73;41.16;102541.00;5013257;28;20455;-67
2022/04/17 10:19:51;;;;;;;0.40;0.20;;;;;;;13.75;40.34;102546.16;5010451;28;20498;-68
2022/04/17 10:22:20;;;;;;;0.40;0.23;;;;;;;13.66;40.41;102551.34;5009794;28;20487;-69
2022/04/17 10:24:51;;;;;;;0.40;0.20;;;;;;;13.73;41.48;102543.72;5008410;28;20969;-66
2022/04/17 10:27:20;;;;;;;0.40;0.30;;;;;;;13.84;39.83;102528.97;5008514;28;20961;-66
2022/04/17 10:29:51;;;;;;;0.40;0.30;;;;;;;13.86;40.27;102526.00;5010701;28;20463;-66
2022/04/17 10:32:51;;;;;;;0.40;0.30;;;;;;;13.87;40.61;102517.53;5010155;28;20459;-68
2022/04/17 10:35:26;;;;;;;0.40;0.27;;;;;;;13.73;40.52;102519.19;5010254;28;20460;-66
2022/04/17 10:38:31;;;;;;;0.40;0.30;;;;;;;13.78;40.13;102524.63;5012308;28;20460;-65
2022/04/17 10:41:00;;;;;;;0.40;0.30;;;;;;;13.87;41.30;102522.16;4996735;28;20467;-66
2022/04/17 10:43:35;;;;;;;0.40;0.30;;;;;;;13.89;42.18;102525.41;5016014;28;20515;-65
2022/04/17 10:46:13;;;;;;;0.40;0.30;;;;;;;13.99;41.44;102519.97;5014014;28;20459;-66
2022/04/17 10:48:48;;;;;;;0.40;0.20;;;;;;;14.01;41.03;102519.69;5014756;28;20466;-66
2022/04/17 10:51:24;;;;;;;0.40;0.30;;;;;;;14.12;42.36;102521.28;5014672;28;20459;-65
2022/04/17 10:54:05;;;;;;;0.40;0.30;;;;;;;14.37;41.52;102510.28;5014568;28;20483;-66
2022/04/17 10:56:35;;;;;;;0.40;0.30;;;;;;;14.60;40.94;102514.28;5001380;28;20543;-65
2022/04/17 10:59:06;;;;;;;0.40;0.30;;;;;;;14.50;39.89;102519.81;5014755;28;20485;-65
2022/04/17 11:01:53;;;;;;;0.40;0.20;;;;;;;14.65;40.28;102505.28;5015497;28;20463;-66
2022/04/17 11:04:22;;;;;;;0.40;0.20;;;;;;;14.79;39.89;102513.69;5012712;28;20483;-65
2022/04/17 11:07:15;;;;;;;0.40;0.30;;;;;;;14.87;39.52;102513.91;5004501;28;20464;-68
2022/04/17 11:09:44;;;;;;;0.40;0.30;;;;;;;14.95;39.29;102506.19;4996436;28;20544;-66
2022/04/17 11:12:23;;;;;;;0.40;0.30;;;;;;;15.14;40.10;102507.97;5007705;28;20953;-66
2022/04/17 11:14:54;;;;;;;0.40;0.30;;;;;;;15.39;38.85;102503.41;5015224;28;20840;-67
2022/04/17 11:17:22;;;;;;;0.40;0.30;;;;;;;16.04;38.71;102501.16;5014633;28;20547;-67
2022/04/17 11:19:53;;;;;;;0.40;0.30;;;;;;;17.30;38.07;102491.44;5017185;28;20444;-66
2022/04/17 11:22:20;;;;;;;0.40;0.30;;;;;;;18.40;34.72;102501.75;5014120;28;20451;-67
2022/04/17 11:25:03;;;;;;;0.40;0.20;;;;;;;19.03;31.91;102502.81;5014233;28;20463;-67
2022/04/17 11:27:35;;;;;;;0.40;0.30;;;;;;;19.62;29.96;102498.09;5013215;28;20972;-67
2022/04/17 11:30:03;;;;;;;0.40;0.30;;;;;;;19.57;30.74;102507.25;5016625;28;21009;-67
2022/04/17 11:32:47;;;;;;;0.40;0.30;;;;;;;19.21;29.14;102488.09;5011176;28;20792;-69
2022/04/17 11:35:18;;;;;;;0.40;0.30;;;;;;;19.14;30.90;102487.72;5011500;28;20463;-66
2022/04/17 11:37:52;;;;;;;0.40;0.30;;;;;;;19.46;32.74;102477.56;5009659;28;20464;-67
2022/04/17 11:40:20;;;;;;;0.40;0.20;;;;;;;20.84;29.29;102489.00;5010282;28;20460;-67
2022/04/17 11:42:48;;;;;;;0.40;0.30;;;;;;;22.03;28.11;102489.41;5014574;28;20538;-67
2022/04/17 11:45:16;;;;;;;0.40;0.30;;;;;;;22.29;26.62;102484.56;5014745;28;20859;-66
2022/04/17 11:47:44;;;;;;;0.40;0.30;;;;;;;22.31;26.52;102487.81;5013667;28;20464;-67